createdAt,value
2022-09-11T00:00:44.671Z,23.39
2022-09-11T00:03:07.900Z,23.42
2022-09-11T00:05:31.371Z,23.29
2022-09-11T00:07:56.233Z,23.20
2022-09-11T00:10:19.375Z,23.19
2022-09-11T00:12:42.710Z,23.09
2022-09-11T00:15:07.598Z,23.18
2022-09-11T00:17:32.145Z,23.13
2022-09-11T00:19:55.062Z,23.08
2022-09-11T00:22:18.270Z,23.04
2022-09-11T00:24:41.510Z,22.90
2022-09-11T00:27:04.995Z,22.86
2022-09-11T00:29:28.562Z,22.89
2022-09-11T00:31:51.754Z,22.91
2022-09-11T00:34:16.302Z,22.86
2022-09-11T00:36:41.461Z,22.71
2022-09-11T00:39:05.057Z,22.73
2022-09-11T00:41:29.833Z,22.74
2022-09-11T00:43:59.666Z,22.70
2022-09-11T00:46:23.290Z,22.71
2022-09-11T00:48:50.109Z,22.71
2022-09-11T00:51:14.698Z,22.73
2022-09-11T00:53:38.076Z,22.61
2022-09-11T00:56:03.154Z,22.74
2022-09-11T00:58:29.358Z,22.69
2022-09-11T01:00:52.476Z,22.55
2022-09-11T01:03:15.746Z,22.45
2022-09-11T01:05:41.166Z,22.39
2022-09-11T01:08:06.515Z,22.50
2022-09-11T01:10:32.557Z,22.45
2022-09-11T01:13:01.589Z,22.42
2022-09-11T01:15:25.872Z,22.45
2022-09-11T01:17:54.019Z,22.43
2022-09-11T01:20:28.153Z,22.52
2022-09-11T01:23:10.068Z,22.52
2022-09-11T01:25:42.978Z,22.50
2022-09-11T01:28:08.277Z,22.44
2022-09-11T01:30:34.302Z,22.44
2022-09-11T01:33:05.714Z,22.48
2022-09-11T01:35:36.692Z,22.43
2022-09-11T01:38:01.229Z,22.53
2022-09-11T01:40:25.481Z,22.55
2022-09-11T01:42:48.881Z,22.52
2022-09-11T01:45:14.198Z,22.45
2022-09-11T01:47:38.225Z,22.50
2022-09-11T01:50:03.190Z,22.54
2022-09-11T01:52:28.934Z,22.51
2022-09-11T01:54:53.170Z,22.60
2022-09-11T01:57:19.832Z,22.59
2022-09-11T01:59:48.203Z,22.52
2022-09-11T02:02:13.833Z,22.48
2022-09-11T02:04:38.999Z,22.61
2022-09-11T02:07:04.078Z,22.57
2022-09-11T02:09:29.919Z,22.51
2022-09-11T02:11:55.356Z,22.54
2022-09-11T02:14:21.844Z,22.52
2022-09-11T02:16:50.005Z,22.52
2022-09-11T02:19:15.667Z,22.42
2022-09-11T02:21:38.813Z,22.43
2022-09-11T02:24:04.209Z,22.47
2022-09-11T02:26:28.238Z,22.48
2022-09-11T02:28:52.050Z,22.75
2022-09-11T02:31:15.668Z,22.86
2022-09-11T02:33:39.026Z,22.86
2022-09-11T02:36:23.478Z,22.65
2022-09-11T02:38:52.471Z,22.58
2022-09-11T02:41:17.609Z,22.55
2022-09-11T02:43:51.524Z,22.53
2022-09-11T02:46:31.084Z,22.43
2022-09-11T02:48:57.430Z,22.56
2022-09-11T02:51:27.178Z,22.58
2022-09-11T02:53:53.332Z,22.63
2022-09-11T02:56:18.011Z,22.61
2022-09-11T02:58:42.208Z,22.59
2022-09-11T03:01:06.256Z,22.65
2022-09-11T03:03:29.909Z,22.62
2022-09-11T03:05:53.126Z,22.72
2022-09-11T03:08:18.039Z,22.93
2022-09-11T03:10:41.386Z,22.94
2022-09-11T03:13:06.063Z,22.96
2022-09-11T03:15:29.276Z,23.00
2022-09-11T03:17:52.665Z,23.10
2022-09-11T03:20:15.961Z,23.04
2022-09-11T03:22:39.784Z,23.00
2022-09-11T03:25:04.563Z,22.98
2022-09-11T03:27:28.289Z,22.90
2022-09-11T03:29:51.657Z,22.92
2022-09-11T03:32:16.251Z,23.02
2022-09-11T03:34:39.475Z,23.00
2022-09-11T03:37:04.137Z,22.85
2022-09-11T03:39:27.316Z,22.89
2022-09-11T03:41:52.394Z,22.97
2022-09-11T03:44:15.750Z,22.90
2022-09-11T03:46:39.028Z,22.78
2022-09-11T03:49:02.499Z,22.72
2022-09-11T03:51:26.658Z,22.55
2022-09-11T03:53:49.950Z,22.52
2022-09-11T03:56:15.019Z,22.48
2022-09-11T03:58:44.371Z,22.55
2022-09-11T04:01:10.487Z,22.45
2022-09-11T04:03:33.844Z,22.47
2022-09-11T04:05:58.227Z,22.41
2022-09-11T04:08:21.535Z,22.33
2022-09-11T04:10:45.345Z,22.28
2022-09-11T04:13:08.587Z,22.36
2022-09-11T04:15:33.362Z,22.41
2022-09-11T04:17:56.724Z,22.39
2022-09-11T04:20:19.907Z,22.48
2022-09-11T04:22:43.206Z,22.47
2022-09-11T04:25:07.395Z,22.47
2022-09-11T04:27:30.774Z,22.48
2022-09-11T04:29:54.496Z,22.44
2022-09-11T04:32:19.262Z,22.48
2022-09-11T04:34:42.466Z,22.45
2022-09-11T04:37:06.181Z,22.38
2022-09-11T04:39:29.585Z,22.31
2022-09-11T04:41:52.961Z,22.35
2022-09-11T04:44:16.396Z,22.34
2022-09-11T04:46:41.133Z,22.44
2022-09-11T04:49:06.140Z,22.49
2022-09-11T04:51:30.906Z,22.40
2022-09-11T04:53:57.545Z,22.35
2022-09-11T04:56:25.602Z,22.39
2022-09-11T04:58:54.176Z,22.35
2022-09-11T05:01:20.131Z,22.29
2022-09-11T05:03:47.203Z,22.31
2022-09-11T05:06:16.441Z,22.35
2022-09-11T05:08:41.219Z,22.38
2022-09-11T05:11:05.445Z,22.30
2022-09-11T05:13:35.676Z,22.35
2022-09-11T05:16:02.663Z,22.35
2022-09-11T05:18:26.815Z,22.36
2022-09-11T05:20:50.057Z,22.41
2022-09-11T05:23:14.790Z,22.35
2022-09-11T05:25:38.910Z,22.45
2022-09-11T05:28:02.111Z,22.40
2022-09-11T05:30:25.444Z,22.28
2022-09-11T05:32:49.215Z,22.34
2022-09-11T05:35:12.841Z,22.38
2022-09-11T05:37:36.677Z,22.36
2022-09-11T05:40:01.244Z,22.34
2022-09-11T05:42:28.619Z,22.36
2022-09-11T05:44:52.781Z,22.38
2022-09-11T05:47:17.309Z,22.41
2022-09-11T05:49:43.791Z,22.35
2022-09-11T05:54:32.122Z,22.42
2022-09-11T05:57:03.535Z,22.42
2022-09-11T05:59:32.950Z,22.39
2022-09-11T06:01:56.860Z,22.34
2022-09-11T06:04:42.729Z,22.39
2022-09-11T06:07:06.085Z,22.40
2022-09-11T06:09:29.237Z,22.42
2022-09-11T06:11:53.359Z,22.45
2022-09-11T06:14:18.564Z,22.39
2022-09-11T06:16:42.348Z,22.45
2022-09-11T06:19:09.044Z,22.44
2022-09-11T06:21:32.238Z,22.47
2022-09-11T06:24:01.966Z,22.44
2022-09-11T06:26:26.386Z,22.53
2022-09-11T06:28:50.908Z,22.50
2022-09-11T06:31:16.491Z,22.51
2022-09-11T06:33:40.961Z,22.62
2022-09-11T06:36:05.250Z,22.72
2022-09-11T06:38:29.571Z,22.73
2022-09-11T06:40:52.944Z,22.75
2022-09-11T06:43:16.157Z,22.74
2022-09-11T06:45:39.802Z,22.75
2022-09-11T06:48:04.680Z,22.88
2022-09-11T06:50:30.554Z,22.98
2022-09-11T06:53:02.318Z,23.07
2022-09-11T06:55:27.737Z,23.01
2022-09-11T06:57:55.943Z,22.99
2022-09-11T07:00:23.069Z,23.08
2022-09-11T07:02:46.443Z,23.08
2022-09-11T07:05:12.096Z,23.09
2022-09-11T07:07:35.787Z,23.15
2022-09-11T07:10:01.167Z,23.20
2022-09-11T07:12:25.248Z,23.10
2022-09-11T07:14:48.553Z,23.12
2022-09-11T07:17:13.671Z,23.18
2022-09-11T07:19:38.101Z,23.26
2022-09-11T07:22:02.680Z,23.25
2022-09-11T07:24:27.136Z,23.24
2022-09-11T07:26:51.044Z,23.20
2022-09-11T07:29:23.729Z,23.20
2022-09-11T07:31:47.859Z,23.22
2022-09-11T07:34:12.128Z,23.30
2022-09-11T07:36:37.525Z,23.29
2022-09-11T07:39:05.373Z,23.28
2022-09-11T07:41:34.772Z,23.30
2022-09-11T07:44:04.283Z,23.34
2022-09-11T07:46:29.943Z,23.36
2022-09-11T07:48:57.407Z,23.36
2022-09-11T07:51:21.250Z,23.36
2022-09-11T07:53:46.333Z,23.40
2022-09-11T07:56:12.729Z,23.50
2022-09-11T07:58:36.067Z,23.55
2022-09-11T08:00:59.524Z,23.58
2022-09-11T08:03:22.982Z,23.55
2022-09-11T08:05:49.030Z,23.57
2022-09-11T08:08:12.231Z,23.60
2022-09-11T08:10:40.850Z,23.62
2022-09-11T08:13:09.406Z,23.60
2022-09-11T08:15:33.517Z,23.59
2022-09-11T08:17:58.825Z,23.62
2022-09-11T08:20:22.004Z,23.67
2022-09-11T08:22:45.227Z,23.68
2022-09-11T08:25:09.182Z,23.67
2022-09-11T08:27:32.723Z,23.69
2022-09-11T08:29:58.168Z,23.75
2022-09-11T08:32:21.811Z,23.75
2022-09-11T08:34:46.044Z,23.80
2022-09-11T08:37:09.294Z,23.82
2022-09-11T08:39:33.529Z,23.84
2022-09-11T08:42:00.437Z,23.87
2022-09-11T08:44:25.578Z,23.90
2022-09-11T08:46:58.401Z,23.94
2022-09-11T08:49:25.548Z,23.95
2022-09-11T08:51:50.124Z,23.93
2022-09-11T08:54:17.555Z,23.98
2022-09-11T08:56:40.719Z,24.02
2022-09-11T08:59:17.757Z,24.04
2022-09-11T09:01:47.206Z,24.11
2022-09-11T09:04:19.994Z,24.12
2022-09-11T09:06:54.206Z,24.10
2022-09-11T09:09:20.609Z,24.11
2022-09-11T09:11:46.466Z,24.10
2022-09-11T09:14:35.186Z,24.14
2022-09-11T09:17:00.052Z,24.16
2022-09-11T09:19:28.255Z,24.08
2022-09-11T09:22:00.903Z,24.10
2022-09-11T09:24:24.085Z,24.13
2022-09-11T09:26:50.731Z,24.17
2022-09-11T09:29:17.859Z,24.18
2022-09-11T09:31:41.368Z,24.20
2022-09-11T09:34:06.058Z,24.20
2022-09-11T09:36:32.820Z,24.21
2022-09-11T09:38:56.904Z,24.26
2022-09-11T09:41:44.397Z,24.26
2022-09-11T09:44:10.947Z,24.29
2022-09-11T09:46:37.398Z,24.31
2022-09-11T09:49:00.764Z,24.29
2022-09-11T09:51:23.922Z,24.28
2022-09-11T09:53:50.057Z,24.29
2022-09-11T09:56:16.315Z,24.30
2022-09-11T09:58:42.756Z,24.32
2022-09-11T10:01:08.327Z,24.34
2022-09-11T10:03:31.612Z,24.38
2022-09-11T10:05:55.138Z,24.40
2022-09-11T10:08:29.384Z,24.38
2022-09-11T10:10:58.268Z,24.38
2022-09-11T10:13:25.006Z,24.41
2022-09-11T10:15:50.168Z,24.45
2022-09-11T10:18:24.207Z,24.45
2022-09-11T10:20:47.403Z,24.45
2022-09-11T10:23:23.367Z,24.45
2022-09-11T10:25:49.984Z,24.50
2022-09-11T10:28:15.267Z,24.50
2022-09-11T10:30:39.358Z,24.50
2022-09-11T10:33:04.643Z,24.47
2022-09-11T10:35:28.232Z,24.49
2022-09-11T10:38:00.640Z,24.52
2022-09-11T10:40:24.308Z,24.49
2022-09-11T10:42:48.511Z,24.52
2022-09-11T10:45:17.066Z,24.55
2022-09-11T10:47:40.264Z,24.57
2022-09-11T10:50:20.343Z,24.57
2022-09-11T10:52:48.541Z,24.57
2022-09-11T10:55:15.298Z,24.60
2022-09-11T10:57:40.195Z,24.56
2022-09-11T11:00:08.261Z,24.57
2022-09-11T11:02:34.245Z,24.57
2022-09-11T11:04:57.483Z,24.62
2022-09-11T11:07:32.216Z,24.66
2022-09-11T11:10:00.185Z,24.65
2022-09-11T11:12:40.565Z,24.67
2022-09-11T11:15:16.929Z,24.63
2022-09-11T11:17:43.532Z,24.62
2022-09-11T11:20:27.660Z,24.72
2022-09-11T11:23:17.906Z,24.73
2022-09-11T11:25:46.282Z,24.74
2022-09-11T11:28:19.227Z,24.78
2022-09-11T11:30:44.928Z,24.79
2022-09-11T11:33:37.617Z,24.84
2022-09-11T11:36:03.798Z,24.88
2022-09-11T11:38:28.746Z,24.84
2022-09-11T11:40:53.491Z,24.85
2022-09-11T11:43:17.847Z,24.92
2022-09-11T11:45:42.749Z,24.93
2022-09-11T11:48:08.526Z,24.96
2022-09-11T11:50:35.679Z,25.04
2022-09-11T11:53:03.613Z,25.02
2022-09-11T11:55:28.094Z,25.02
2022-09-11T11:57:54.630Z,24.98
2022-09-11T12:00:18.120Z,24.98
2022-09-11T12:02:44.433Z,24.98
2022-09-11T12:05:11.162Z,24.97
2022-09-11T12:07:36.703Z,24.96
2022-09-11T12:10:01.510Z,25.03
2022-09-11T12:12:25.621Z,25.01
2022-09-11T12:14:53.797Z,24.99
2022-09-11T12:17:21.207Z,24.99
2022-09-11T12:20:15.901Z,25.00
2022-09-11T12:22:40.909Z,25.05
2022-09-11T12:25:04.238Z,25.09
2022-09-11T12:27:53.432Z,25.05
2022-09-11T12:30:22.065Z,25.06
2022-09-11T12:32:45.695Z,25.14
2022-09-11T12:35:30.903Z,25.13
2022-09-11T12:37:57.262Z,25.12
2022-09-11T12:40:24.442Z,25.19
2022-09-11T12:42:55.103Z,25.24
2022-09-11T12:45:35.838Z,25.24
2022-09-11T12:48:05.325Z,25.21
2022-09-11T12:50:28.528Z,25.21
2022-09-11T12:52:52.684Z,25.20
2022-09-11T12:55:31.406Z,25.25
2022-09-11T12:57:55.138Z,25.27
2022-09-11T13:00:24.013Z,25.22
2022-09-11T13:02:49.112Z,25.22
2022-09-11T13:05:17.804Z,25.22
2022-09-11T13:07:43.437Z,25.16
2022-09-11T13:10:08.722Z,25.23
2022-09-11T13:12:53.592Z,25.23
2022-09-11T13:15:36.238Z,25.26
2022-09-11T13:17:59.609Z,25.27
2022-09-11T13:20:23.705Z,25.25
2022-09-11T13:22:48.946Z,25.29
2022-09-11T13:25:13.489Z,25.31
2022-09-11T13:27:37.616Z,25.30
2022-09-11T13:30:02.690Z,25.30
2022-09-11T13:32:25.989Z,25.31
2022-09-11T13:34:50.918Z,25.31
2022-09-11T13:37:23.727Z,25.32
2022-09-11T13:39:47.154Z,25.33
2022-09-11T13:42:16.303Z,25.33
2022-09-11T13:44:44.157Z,25.35
2022-09-11T13:47:17.682Z,25.34
2022-09-11T13:49:42.099Z,25.33
2022-09-11T13:52:05.229Z,25.29
2022-09-11T13:54:29.770Z,25.26
2022-09-11T13:57:11.643Z,25.32
2022-09-11T13:59:41.599Z,25.31
2022-09-11T14:02:06.665Z,25.33
2022-09-11T14:04:33.189Z,25.36
2022-09-11T14:06:56.529Z,25.37
2022-09-11T14:09:20.067Z,25.38
2022-09-11T14:11:43.234Z,25.37
2022-09-11T14:14:07.865Z,25.30
2022-09-11T14:16:32.554Z,25.42
2022-09-11T14:18:56.634Z,25.41
2022-09-11T14:21:22.931Z,25.41
2022-09-11T14:23:48.243Z,25.43
2022-09-11T14:26:16.008Z,25.40
2022-09-11T14:28:46.830Z,25.40
2022-09-11T14:31:11.167Z,25.42
2022-09-11T14:33:34.292Z,25.39
2022-09-11T14:36:04.581Z,25.36
2022-09-11T14:38:31.621Z,25.35
2022-09-11T14:40:57.606Z,25.36
2022-09-11T14:43:24.295Z,25.35
2022-09-11T14:45:47.746Z,25.35
2022-09-11T14:48:11.803Z,25.36
2022-09-11T14:50:34.992Z,25.35
2022-09-11T14:52:58.273Z,25.33
2022-09-11T14:55:22.863Z,25.34
2022-09-11T14:57:46.864Z,25.34
2022-09-11T15:00:11.917Z,25.33
2022-09-11T15:02:35.042Z,25.35
2022-09-11T15:04:58.843Z,25.36
2022-09-11T15:07:22.658Z,25.38
2022-09-11T15:09:45.867Z,25.39
2022-09-11T15:12:11.344Z,25.39
2022-09-11T15:14:55.041Z,25.38
2022-09-11T15:17:20.113Z,25.38
2022-09-11T15:19:45.828Z,25.37
2022-09-11T15:22:09.150Z,25.36
2022-09-11T15:24:32.603Z,25.36
2022-09-11T15:26:55.873Z,25.35
2022-09-11T15:29:21.000Z,25.32
2022-09-11T15:31:44.227Z,25.31
2022-09-11T15:34:07.776Z,25.29
2022-09-11T15:36:31.275Z,25.30
2022-09-11T15:38:54.601Z,25.29
2022-09-11T15:41:20.074Z,25.31
2022-09-11T15:43:44.877Z,25.30
2022-09-11T15:46:12.866Z,25.29
2022-09-11T15:48:36.069Z,25.26
2022-09-11T15:51:02.437Z,25.26
2022-09-11T15:53:25.895Z,25.26
2022-09-11T15:55:49.087Z,25.26
2022-09-11T15:58:12.227Z,25.24
2022-09-11T16:00:35.778Z,25.24
2022-09-11T16:03:00.414Z,25.24
2022-09-11T16:05:23.523Z,25.24
2022-09-11T16:07:47.809Z,25.22
2022-09-11T16:10:11.230Z,25.25
2022-09-11T16:12:34.786Z,25.24
2022-09-11T16:14:57.987Z,25.24
2022-09-11T16:17:23.106Z,25.24
2022-09-11T16:19:47.814Z,25.22
2022-09-11T16:22:11.033Z,25.21
2022-09-11T16:24:37.608Z,25.21
2022-09-11T16:27:01.707Z,25.19
2022-09-11T16:29:25.722Z,25.17
2022-09-11T16:31:49.581Z,25.19
2022-09-11T16:34:12.753Z,25.14
2022-09-11T16:36:38.806Z,25.10
2022-09-11T16:39:02.067Z,25.08
2022-09-11T16:41:25.578Z,25.04
2022-09-11T16:43:49.871Z,24.99
2022-09-11T16:46:13.865Z,25.00
2022-09-11T16:48:38.227Z,24.99
2022-09-11T16:51:01.438Z,24.94
2022-09-11T16:53:26.634Z,24.96
2022-09-11T16:55:49.950Z,24.93
2022-09-11T16:58:14.251Z,24.92
2022-09-11T17:00:37.902Z,24.94
2022-09-11T17:03:01.270Z,24.92
2022-09-11T17:05:25.219Z,24.91
2022-09-11T17:07:48.520Z,24.91
2022-09-11T17:10:13.150Z,24.88
2022-09-11T17:12:37.242Z,24.89
2022-09-11T17:15:00.494Z,24.89
2022-09-11T17:17:23.942Z,24.88
2022-09-11T17:19:47.079Z,24.88
2022-09-11T17:22:10.602Z,24.87
2022-09-11T17:24:33.768Z,24.86
2022-09-11T17:26:58.946Z,24.82
2022-09-11T17:29:22.120Z,24.84
2022-09-11T17:31:45.355Z,24.85
2022-09-11T17:34:08.670Z,24.80
2022-09-11T17:36:31.823Z,24.83
2022-09-11T17:38:55.326Z,24.84
2022-09-11T17:41:18.636Z,24.79
2022-09-11T17:43:43.212Z,24.79
2022-09-11T17:46:07.423Z,24.76
2022-09-11T17:48:31.180Z,24.75
2022-09-11T17:51:01.178Z,24.74
2022-09-11T17:53:24.446Z,24.72
2022-09-11T17:55:47.624Z,24.73
2022-09-11T17:58:10.878Z,24.74
2022-09-11T18:00:35.482Z,24.74
2022-09-11T18:02:59.091Z,24.78
2022-09-11T18:05:22.731Z,24.78
2022-09-11T18:07:48.287Z,24.77
2022-09-11T18:10:11.501Z,24.76
2022-09-11T18:12:35.342Z,24.77
2022-09-11T18:15:00.151Z,24.78
2022-09-11T18:17:24.739Z,24.76
2022-09-11T18:19:48.127Z,24.74
2022-09-11T18:22:11.364Z,24.76
2022-09-11T18:24:34.545Z,24.75
2022-09-11T18:27:00.833Z,24.76
2022-09-11T18:29:24.295Z,24.72
2022-09-11T18:31:49.897Z,24.73
2022-09-11T18:34:16.222Z,24.66
2022-09-11T18:36:39.578Z,24.64
2022-09-11T18:39:02.990Z,24.64
2022-09-11T18:41:26.192Z,24.66
2022-09-11T18:43:49.474Z,24.66
2022-09-11T18:46:12.671Z,24.60
2022-09-11T18:48:35.879Z,24.62
2022-09-11T18:51:02.363Z,24.67
2022-09-11T18:53:25.960Z,24.61
2022-09-11T18:55:49.172Z,24.58
2022-09-11T18:58:12.487Z,24.51
2022-09-11T19:00:35.941Z,24.49
2022-09-11T19:03:00.260Z,24.58
2022-09-11T19:05:24.998Z,24.58
2022-09-11T19:07:49.822Z,24.46
2022-09-11T19:10:13.048Z,24.52
2022-09-11T19:12:36.747Z,24.46
2022-09-11T19:15:00.479Z,24.53
2022-09-11T19:17:23.807Z,24.60
2022-09-11T19:19:46.967Z,24.55
2022-09-11T19:22:11.241Z,24.61
2022-09-11T19:24:35.872Z,24.55
2022-09-11T19:27:00.217Z,24.46
2022-09-11T19:29:23.282Z,24.48
2022-09-11T19:31:46.727Z,24.48
2022-09-11T19:34:12.932Z,24.43
2022-09-11T19:36:36.366Z,24.38
2022-09-11T19:39:00.792Z,24.33
2022-09-11T19:41:26.189Z,24.37
2022-09-11T19:43:49.451Z,24.27
2022-09-11T19:46:13.806Z,24.23
2022-09-11T19:48:37.861Z,24.21
2022-09-11T19:51:01.682Z,24.11
2022-09-11T19:53:25.164Z,24.13
2022-09-11T19:55:48.361Z,24.06
2022-09-11T19:58:12.990Z,23.99
2022-09-11T20:00:38.254Z,23.96
2022-09-11T20:03:01.410Z,23.92
2022-09-11T20:05:24.702Z,23.87
2022-09-11T20:07:47.878Z,23.94
2022-09-11T20:10:11.162Z,23.86
2022-09-11T20:12:37.158Z,23.80
2022-09-11T20:15:01.698Z,23.74
2022-09-11T20:17:24.893Z,23.74
2022-09-11T20:19:48.124Z,23.72
2022-09-11T20:22:11.402Z,23.78
2022-09-11T20:24:34.648Z,23.78
2022-09-11T20:26:57.813Z,23.70
2022-09-11T20:29:21.058Z,23.83
2022-09-11T20:31:48.191Z,23.84
2022-09-11T20:34:12.137Z,23.74
2022-09-11T20:36:35.315Z,23.75
2022-09-11T20:39:00.647Z,23.76
2022-09-11T20:41:24.932Z,23.71
2022-09-11T20:43:48.194Z,23.76
2022-09-11T20:46:11.384Z,23.79
2022-09-11T20:48:36.066Z,23.78
2022-09-11T20:51:02.558Z,23.67
2022-09-11T20:53:26.307Z,23.64
2022-09-11T20:55:49.544Z,23.63
2022-09-11T20:58:12.720Z,23.54
2022-09-11T21:00:35.961Z,23.63
2022-09-11T21:03:00.578Z,23.58
2022-09-11T21:05:25.276Z,23.57
2022-09-11T21:07:48.226Z,23.52
2022-09-11T21:10:11.570Z,23.51
2022-09-11T21:12:34.870Z,23.51
2022-09-11T21:14:58.015Z,23.40
2022-09-11T21:17:21.172Z,23.43
2022-09-11T21:19:44.403Z,23.43
2022-09-11T21:22:08.913Z,23.42
2022-09-11T21:24:31.849Z,23.34
2022-09-11T21:26:54.985Z,23.38
2022-09-11T21:29:18.145Z,23.34
2022-09-11T21:31:41.483Z,23.38
2022-09-11T21:34:04.756Z,23.42
2022-09-11T21:36:28.146Z,23.36
2022-09-11T21:38:52.702Z,23.36
2022-09-11T21:41:15.850Z,23.36
2022-09-11T21:43:39.125Z,23.26
2022-09-11T21:46:02.426Z,23.29
2022-09-11T21:48:25.577Z,23.33
2022-09-11T21:50:48.776Z,23.28
2022-09-11T21:53:12.518Z,23.26
2022-09-11T21:55:39.329Z,23.22
2022-09-11T21:58:02.496Z,23.20
2022-09-11T22:00:25.679Z,23.17
2022-09-11T22:02:48.933Z,23.12
2022-09-11T22:05:12.142Z,23.15
2022-09-11T22:07:35.506Z,23.10
2022-09-11T22:09:58.842Z,23.07
2022-09-11T22:12:23.527Z,23.03
2022-09-11T22:14:48.839Z,23.02
2022-09-11T22:17:12.306Z,22.91
2022-09-11T22:19:35.493Z,22.96
2022-09-11T22:21:58.802Z,22.98
2022-09-11T22:24:22.021Z,22.94
2022-09-11T22:26:45.338Z,22.94
2022-09-11T22:29:10.214Z,22.94
2022-09-11T22:31:33.506Z,22.85
2022-09-11T22:33:57.546Z,22.94
2022-09-11T22:36:21.478Z,22.98
2022-09-11T22:38:44.727Z,22.97
2022-09-11T22:41:08.218Z,22.92
2022-09-11T22:43:31.486Z,22.97
2022-09-11T22:45:56.098Z,22.99
2022-09-11T22:48:19.414Z,22.99
2022-09-11T22:50:42.596Z,22.89
2022-09-11T22:53:05.813Z,22.91
2022-09-11T22:55:28.962Z,22.88
2022-09-11T22:57:52.599Z,22.87
2022-09-11T23:00:19.011Z,22.93
2022-09-11T23:02:43.650Z,22.90
2022-09-11T23:05:24.117Z,22.85
2022-09-11T23:07:49.629Z,22.78
2022-09-11T23:10:13.561Z,22.77
2022-09-11T23:12:37.418Z,22.61
2022-09-11T23:15:02.999Z,22.63
2022-09-11T23:17:27.057Z,22.69
2022-09-11T23:19:51.697Z,22.69
2022-09-11T23:22:14.646Z,22.57
2022-09-11T23:24:37.898Z,22.62
2022-09-11T23:27:01.064Z,22.61
2022-09-11T23:29:24.250Z,22.72
2022-09-11T23:31:47.548Z,22.63
2022-09-11T23:34:12.045Z,22.67
2022-09-11T23:36:36.752Z,22.57
2022-09-11T23:38:59.880Z,22.51
2022-09-11T23:41:23.217Z,22.64
2022-09-11T23:43:46.557Z,22.70
2022-09-11T23:46:09.918Z,22.74
2022-09-11T23:48:33.077Z,22.65
2022-09-11T23:50:56.301Z,22.43
2022-09-11T23:53:20.823Z,22.40
2022-09-11T23:55:44.031Z,22.34
2022-09-11T23:58:07.200Z,22.35
